createdAt,value
2022-10-04T00:01:52.547Z,102007.16
2022-10-04T00:04:26.230Z,102006.97
2022-10-04T00:07:00.990Z,102007.25
2022-10-04T00:09:34.901Z,102008.41
2022-10-04T00:12:06.072Z,102005.25
2022-10-04T00:14:40.375Z,102007.41
2022-10-04T00:17:20.086Z,102005.34
2022-10-04T00:19:50.949Z,102000.38
2022-10-04T00:22:27.932Z,101998.69
2022-10-04T00:25:18.544Z,102008.97
2022-10-04T00:28:30.059Z,101997.13
2022-10-04T00:31:19.974Z,101996.72
2022-10-04T00:33:51.595Z,101989.88
2022-10-04T00:36:39.629Z,101983.13
2022-10-04T00:39:19.274Z,101982.38
2022-10-04T00:42:03.849Z,101980.19
2022-10-04T00:44:40.946Z,101985.47
2022-10-04T00:47:24.920Z,101985.28
2022-10-04T00:50:02.283Z,102005.63
2022-10-04T00:52:36.972Z,101985.06
2022-10-04T00:55:11.023Z,101981.44
2022-10-04T00:57:44.908Z,101990.63
2022-10-04T01:00:16.031Z,101991.94
2022-10-04T01:02:53.756Z,101983.00
2022-10-04T01:05:29.867Z,101980.31
2022-10-04T01:08:05.587Z,101974.94
2022-10-04T01:10:39.997Z,101977.13
2022-10-04T01:13:14.533Z,101978.38
2022-10-04T01:15:52.124Z,101974.88
2022-10-04T01:18:31.657Z,101959.16
2022-10-04T01:21:05.791Z,101960.09
2022-10-04T01:23:42.583Z,101965.59
2022-10-04T01:26:44.825Z,101965.94
2022-10-04T01:29:17.415Z,101971.88
2022-10-04T01:31:48.766Z,101960.97
2022-10-04T01:34:19.616Z,101954.81
2022-10-04T01:36:49.919Z,101956.41
2022-10-04T01:39:22.451Z,101951.41
2022-10-04T01:41:57.631Z,101948.44
2022-10-04T01:44:35.672Z,101955.47
2022-10-04T01:47:09.533Z,101956.72
2022-10-04T01:49:42.063Z,101956.78
2022-10-04T01:52:17.247Z,101955.03
2022-10-04T01:54:54.648Z,101936.09
2022-10-04T01:57:26.713Z,101934.34
2022-10-04T02:00:02.688Z,101931.72
2022-10-04T02:02:36.794Z,101934.38
2022-10-04T02:05:10.362Z,101930.69
2022-10-04T02:07:42.026Z,101931.78
2022-10-04T02:10:18.600Z,101932.41
2022-10-04T02:12:50.717Z,101925.31
2022-10-04T02:15:22.124Z,101921.00
2022-10-04T02:17:51.743Z,101908.88
2022-10-04T02:20:24.036Z,101911.22
2022-10-04T02:22:59.249Z,101918.72
2022-10-04T02:25:29.519Z,101906.13
2022-10-04T02:27:58.374Z,101898.25
2022-10-04T02:30:27.256Z,101889.56
2022-10-04T02:33:00.647Z,101878.84
2022-10-04T02:35:35.722Z,101879.69
2022-10-04T02:38:10.965Z,101885.94
2022-10-04T02:40:46.493Z,101894.25
2022-10-04T02:43:20.159Z,101891.88
2022-10-04T02:45:53.495Z,101888.69
2022-10-04T02:48:33.305Z,101889.25
2022-10-04T02:51:12.913Z,101888.69
2022-10-04T02:53:51.864Z,101889.94
2022-10-04T02:56:24.850Z,101878.41
2022-10-04T02:58:54.677Z,101881.25
2022-10-04T03:01:29.332Z,101877.38
2022-10-04T03:03:59.380Z,101882.94
2022-10-04T03:06:33.423Z,101870.38
2022-10-04T03:09:06.088Z,101873.81
2022-10-04T03:11:40.528Z,101855.72
2022-10-04T03:14:15.122Z,101857.25
2022-10-04T03:16:46.507Z,101858.50
2022-10-04T03:19:18.059Z,101856.59
2022-10-04T03:21:50.298Z,101846.00
2022-10-04T03:24:21.715Z,101845.69
2022-10-04T03:26:54.558Z,101851.00
2022-10-04T03:29:27.580Z,101855.41
2022-10-04T03:31:58.439Z,101855.66
2022-10-04T03:34:30.351Z,101865.94
2022-10-04T03:37:00.905Z,101860.34
2022-10-04T03:39:33.509Z,101853.81
2022-10-04T03:42:06.642Z,101854.09
2022-10-04T03:44:35.662Z,101855.84
2022-10-04T03:47:08.517Z,101850.63
2022-10-04T03:49:39.721Z,101850.25
2022-10-04T03:52:15.223Z,101849.84
2022-10-04T03:54:44.378Z,101836.59
2022-10-04T03:57:14.680Z,101837.56
2022-10-04T03:59:44.176Z,101836.16
2022-10-04T04:02:21.224Z,101839.56
2022-10-04T04:04:58.733Z,101836.38
2022-10-04T04:07:31.790Z,101839.53
2022-10-04T04:10:07.064Z,101840.44
2022-10-04T04:12:41.981Z,101835.47
2022-10-04T04:15:13.266Z,101832.28
2022-10-04T04:17:44.114Z,101836.66
2022-10-04T04:20:23.101Z,101828.94
2022-10-04T04:23:02.581Z,101825.34
2022-10-04T04:25:35.882Z,101831.97
2022-10-04T04:28:15.186Z,101823.84
2022-10-04T04:30:49.170Z,101826.97
2022-10-04T04:33:25.203Z,101825.22
2022-10-04T04:35:57.342Z,101824.69
2022-10-04T04:38:27.112Z,101815.63
2022-10-04T04:40:57.442Z,101818.91
2022-10-04T04:43:29.219Z,101812.03
2022-10-04T04:46:22.184Z,101804.50
2022-10-04T04:48:48.990Z,101801.75
2022-10-04T04:51:22.287Z,101802.78
2022-10-04T04:53:53.042Z,101802.16
2022-10-04T04:56:24.918Z,101806.53
2022-10-04T04:58:59.633Z,101797.53
2022-10-04T05:01:31.015Z,101795.22
2022-10-04T05:04:03.829Z,101786.00
2022-10-04T05:06:34.383Z,101784.47
2022-10-04T05:09:03.376Z,101775.69
2022-10-04T05:11:35.771Z,101778.16
2022-10-04T05:14:09.939Z,101779.38
2022-10-04T05:16:43.095Z,101782.41
2022-10-04T05:19:18.002Z,101786.31
2022-10-04T05:21:48.698Z,101787.84
2022-10-04T05:24:23.774Z,101787.13
2022-10-04T05:26:55.020Z,101791.63
2022-10-04T05:29:27.936Z,101795.16
2022-10-04T05:32:06.398Z,101793.34
2022-10-04T05:34:41.088Z,101798.03
2022-10-04T05:37:42.782Z,101797.69
2022-10-04T05:40:30.902Z,101796.63
2022-10-04T05:42:59.551Z,101797.91
2022-10-04T05:45:32.095Z,101799.19
2022-10-04T05:48:07.804Z,101791.88
2022-10-04T05:50:40.790Z,101789.47
2022-10-04T05:53:22.746Z,101798.22
2022-10-04T05:56:01.953Z,101795.69
2022-10-04T05:58:58.343Z,101787.94
2022-10-04T06:01:42.020Z,101795.56
2022-10-04T06:04:28.300Z,101793.44
2022-10-04T06:07:00.623Z,101792.81
2022-10-04T06:09:52.167Z,101791.56
2022-10-04T06:12:35.475Z,101784.72
2022-10-04T06:15:43.215Z,101781.53
2022-10-04T06:18:28.955Z,101789.34
2022-10-04T06:21:18.179Z,101792.38
2022-10-04T06:23:54.373Z,101796.63
2022-10-04T06:26:26.347Z,101796.84
2022-10-04T06:29:00.580Z,101794.69
2022-10-04T06:32:09.602Z,101791.91
2022-10-04T06:35:03.992Z,101797.47
2022-10-04T06:37:56.110Z,101796.38
2022-10-04T06:40:57.544Z,101797.97
2022-10-04T06:43:40.880Z,101799.03
2022-10-04T06:46:16.838Z,101801.81
2022-10-04T06:49:19.864Z,101796.72
2022-10-04T06:52:17.482Z,101797.66
2022-10-04T06:55:06.900Z,101801.59
2022-10-04T06:58:00.091Z,101797.44
2022-10-04T07:00:30.247Z,101802.22
2022-10-04T07:03:03.138Z,101803.72
2022-10-04T07:05:39.956Z,101811.00
2022-10-04T07:08:31.160Z,101810.81
2022-10-04T07:11:05.812Z,101813.97
2022-10-04T07:13:45.771Z,101809.28
2022-10-04T07:16:32.064Z,101803.22
2022-10-04T07:19:12.416Z,101802.16
2022-10-04T07:21:50.599Z,101800.25
2022-10-04T07:24:27.295Z,101807.03
2022-10-04T07:26:57.375Z,101816.22
2022-10-04T07:29:28.968Z,101806.75
2022-10-04T07:32:10.515Z,101806.81
2022-10-04T07:34:45.484Z,101816.84
2022-10-04T07:37:15.700Z,101818.63
2022-10-04T07:39:54.027Z,101818.34
2022-10-04T07:42:29.172Z,101821.72
2022-10-04T07:45:11.715Z,101817.75
2022-10-04T07:47:41.493Z,101822.78
2022-10-04T07:50:35.173Z,101820.91
2022-10-04T07:53:09.478Z,101823.78
2022-10-04T07:55:52.637Z,101814.69
2022-10-04T07:58:31.843Z,101824.03
2022-10-04T08:01:02.726Z,101823.34
2022-10-04T08:03:49.582Z,101818.66
2022-10-04T08:06:26.377Z,101821.06
2022-10-04T08:09:26.063Z,101818.28
2022-10-04T08:12:07.448Z,101808.00
2022-10-04T08:14:50.557Z,101813.47
2022-10-04T08:17:36.949Z,101803.50
2022-10-04T08:20:26.997Z,101801.75
2022-10-04T08:23:10.692Z,101813.06
2022-10-04T08:25:52.347Z,101800.41
2022-10-04T08:28:53.512Z,101797.47
2022-10-04T08:31:39.394Z,101802.41
2022-10-04T08:34:26.848Z,101796.88
2022-10-04T08:37:10.170Z,101796.66
2022-10-04T08:40:12.863Z,101803.63
2022-10-04T08:43:20.879Z,101803.34
2022-10-04T08:46:10.589Z,101804.63
2022-10-04T08:49:22.821Z,101798.28
2022-10-04T08:52:27.151Z,101797.50
2022-10-04T08:55:37.460Z,101806.25
2022-10-04T08:58:25.011Z,101800.41
2022-10-04T09:01:32.718Z,101793.38
2022-10-04T09:04:41.267Z,101799.31
2022-10-04T09:07:48.977Z,101794.69
2022-10-04T09:10:39.321Z,101800.44
2022-10-04T09:13:31.351Z,101801.69
2022-10-04T09:16:16.195Z,101795.88
2022-10-04T09:18:54.151Z,101791.41
2022-10-04T09:21:43.326Z,101798.28
2022-10-04T09:24:36.657Z,101794.00
2022-10-04T09:27:36.867Z,101797.09
2022-10-04T09:30:19.798Z,101788.94
2022-10-04T09:33:09.927Z,101791.59
2022-10-04T09:36:03.305Z,101775.88
2022-10-04T09:39:30.319Z,101775.75
2022-10-04T09:42:33.783Z,101774.19
2022-10-04T09:45:30.182Z,101777.03
2022-10-04T09:48:26.413Z,101783.63
2022-10-04T09:51:18.828Z,101776.81
2022-10-04T09:54:04.242Z,101771.59
2022-10-04T09:56:57.250Z,101774.34
2022-10-04T09:59:41.215Z,101766.66
2022-10-04T10:02:44.704Z,101773.94
2022-10-04T10:05:29.071Z,101767.06
2022-10-04T10:08:09.812Z,101761.06
2022-10-04T10:11:07.324Z,101766.69
2022-10-04T10:14:17.357Z,101771.13
2022-10-04T10:17:00.161Z,101764.25
2022-10-04T10:20:10.171Z,101760.97
2022-10-04T10:23:03.999Z,101758.91
2022-10-04T10:25:48.974Z,101752.78
2022-10-04T10:28:43.344Z,101753.66
2022-10-04T10:31:44.591Z,101755.03
2022-10-04T10:34:35.984Z,101759.00
2022-10-04T10:37:18.943Z,101753.88
2022-10-04T10:40:33.186Z,101750.50
2022-10-04T10:43:29.315Z,101745.38
2022-10-04T10:46:08.768Z,101747.88
2022-10-04T10:48:57.214Z,101763.44
2022-10-04T10:52:07.028Z,101748.09
2022-10-04T10:54:57.891Z,101754.13
2022-10-04T10:57:56.981Z,101751.44
2022-10-04T11:00:33.789Z,101747.78
2022-10-04T11:03:43.512Z,101736.31
2022-10-04T11:06:39.475Z,101736.47
2022-10-04T11:09:34.506Z,101736.31
2022-10-04T11:12:40.086Z,101728.44
2022-10-04T11:16:01.877Z,101721.88
2022-10-04T11:19:11.948Z,101708.41
2022-10-04T11:22:11.933Z,101713.00
2022-10-04T11:25:14.857Z,101707.78
2022-10-04T11:27:57.222Z,101715.44
2022-10-04T11:30:32.131Z,101713.97
2022-10-04T11:33:43.343Z,101699.84
2022-10-04T11:36:41.944Z,101703.47
2022-10-04T11:39:53.619Z,101704.13
2022-10-04T11:42:36.989Z,101700.81
2022-10-04T11:45:55.865Z,101706.41
2022-10-04T11:48:40.154Z,101690.91
2022-10-04T11:51:48.837Z,101693.09
2022-10-04T11:54:52.001Z,101698.22
2022-10-04T11:57:32.449Z,101708.72
2022-10-04T12:00:10.655Z,101704.31
2022-10-04T12:03:15.070Z,101694.19
2022-10-04T12:06:10.095Z,101696.47
2022-10-04T12:09:05.310Z,101689.59
2022-10-04T12:12:30.988Z,101689.69
2022-10-04T12:15:23.761Z,101687.13
2022-10-04T12:18:28.560Z,101682.28
2022-10-04T12:24:04.270Z,101665.31
2022-10-04T12:27:06.340Z,101666.19
2022-10-04T12:30:07.195Z,101670.03
2022-10-04T12:32:43.155Z,101664.97
2022-10-04T12:35:25.687Z,101651.41
2022-10-04T12:38:15.752Z,101664.00
2022-10-04T12:40:52.990Z,101652.72
2022-10-04T12:43:34.380Z,101645.56
2022-10-04T12:46:17.542Z,101645.50
2022-10-04T12:49:02.024Z,101639.41
2022-10-04T12:51:52.819Z,101642.19
2022-10-04T12:54:35.921Z,101639.88
2022-10-04T12:57:29.244Z,101629.97
2022-10-04T13:00:04.763Z,101635.38
2022-10-04T13:02:54.786Z,101636.19
2022-10-04T13:05:28.839Z,101636.00
2022-10-04T13:08:18.360Z,101632.78
2022-10-04T13:11:22.313Z,101630.53
2022-10-04T13:14:10.863Z,101637.69
2022-10-04T13:19:53.178Z,101622.75
2022-10-04T13:23:02.302Z,101630.91
2022-10-04T13:26:03.977Z,101613.25
2022-10-04T13:28:41.595Z,101593.44
2022-10-04T13:31:23.934Z,101601.13
2022-10-04T13:34:01.053Z,101601.72
2022-10-04T13:36:39.684Z,101605.47
2022-10-04T13:39:47.971Z,101594.09
2022-10-04T13:42:38.409Z,101583.53
2022-10-04T13:45:37.009Z,101586.63
2022-10-04T13:48:41.289Z,101572.06
2022-10-04T13:51:40.495Z,101574.59
2022-10-04T13:54:44.632Z,101581.88
2022-10-04T13:57:25.380Z,101584.41
2022-10-04T14:00:03.648Z,101576.69
2022-10-04T14:03:05.001Z,101567.72
2022-10-04T14:06:18.991Z,101573.78
2022-10-04T14:09:34.103Z,101578.09
2022-10-04T14:12:38.604Z,101575.28
2022-10-04T14:16:02.620Z,101578.97
2022-10-04T14:19:24.627Z,101586.19
2022-10-04T14:22:36.302Z,101576.03
2022-10-04T14:25:58.713Z,101567.28
2022-10-04T14:29:16.491Z,101558.25
2022-10-04T14:32:32.200Z,101566.75
2022-10-04T14:35:11.331Z,101562.09
2022-10-04T14:38:35.806Z,101548.84
2022-10-04T14:42:07.078Z,101544.50
2022-10-04T14:45:06.423Z,101543.03
2022-10-04T14:48:13.238Z,101539.06
2022-10-04T14:51:02.051Z,101538.78
2022-10-04T14:53:40.877Z,101532.88
2022-10-04T14:56:35.963Z,101535.66
2022-10-04T14:59:27.807Z,101533.72
2022-10-04T15:02:39.452Z,101526.03
2022-10-04T15:06:00.222Z,101528.59
2022-10-04T15:09:25.048Z,101522.47
2022-10-04T15:12:29.568Z,101522.53
2022-10-04T15:15:22.266Z,101518.25
2022-10-04T15:18:03.531Z,101519.97
2022-10-04T15:20:47.609Z,101529.47
2022-10-04T15:23:27.731Z,101521.88
2022-10-04T15:26:04.154Z,101530.25
2022-10-04T15:28:54.539Z,101528.25
2022-10-04T15:31:30.818Z,101525.38
2022-10-04T15:34:13.765Z,101532.41
2022-10-04T15:37:15.201Z,101524.34
2022-10-04T15:40:20.897Z,101533.31
2022-10-04T15:43:21.259Z,101532.53
2022-10-04T15:46:26.820Z,101522.09
2022-10-04T15:49:25.673Z,101525.66
2022-10-04T15:52:43.863Z,101518.56
2022-10-04T15:55:21.497Z,101526.69
2022-10-04T15:58:32.942Z,101529.25
2022-10-04T16:01:34.966Z,101531.94
2022-10-04T16:04:42.947Z,101527.41
2022-10-04T16:07:59.858Z,101534.72
2022-10-04T16:10:48.376Z,101535.44
2022-10-04T16:13:42.619Z,101544.00
2022-10-04T16:17:09.811Z,101535.38
2022-10-04T16:20:24.117Z,101527.34
2022-10-04T16:23:28.006Z,101532.22
2022-10-04T16:25:57.922Z,101526.28
2022-10-04T16:29:04.582Z,101525.28
2022-10-04T16:31:56.940Z,101526.69
2022-10-04T16:34:48.590Z,101521.94
2022-10-04T16:37:32.127Z,101513.31
2022-10-04T16:40:16.962Z,101505.47
2022-10-04T16:42:59.518Z,101508.50
2022-10-04T16:46:07.130Z,101510.69
2022-10-04T16:48:48.646Z,101509.03
2022-10-04T16:52:03.424Z,101514.09
2022-10-04T16:55:22.495Z,101521.66
2022-10-04T16:58:57.282Z,101512.72
2022-10-04T17:02:22.536Z,101501.75
2022-10-04T17:05:19.352Z,101508.09
2022-10-04T17:08:27.769Z,101503.81
2022-10-04T17:11:45.597Z,101493.75
2022-10-04T17:15:24.740Z,101503.03
2022-10-04T17:18:01.765Z,101499.97
2022-10-04T17:20:48.051Z,101509.19
2022-10-04T17:23:43.186Z,101513.38
2022-10-04T17:26:32.914Z,101513.38
2022-10-04T17:29:18.178Z,101522.81
2022-10-04T17:31:57.917Z,101521.16
2022-10-04T17:34:47.689Z,101526.44
2022-10-04T17:37:27.452Z,101524.72
2022-10-04T17:40:20.329Z,101529.78
2022-10-04T17:42:59.987Z,101537.03
2022-10-04T17:45:51.991Z,101542.38
2022-10-04T17:48:43.180Z,101537.00
2022-10-04T17:51:51.992Z,101535.03
2022-10-04T17:54:42.875Z,101536.41
2022-10-04T17:57:25.421Z,101541.69
2022-10-04T18:00:09.213Z,101542.53
2022-10-04T18:03:10.377Z,101540.59
2022-10-04T18:05:50.905Z,101552.94
2022-10-04T18:08:40.412Z,101551.53
2022-10-04T18:11:20.559Z,101549.94
2022-10-04T18:13:58.279Z,101547.16
2022-10-04T18:16:31.531Z,101551.63
2022-10-04T18:19:24.591Z,101558.88
2022-10-04T18:21:56.459Z,101540.63
2022-10-04T18:24:30.818Z,101551.22
2022-10-04T18:27:05.039Z,101557.38
2022-10-04T18:29:42.406Z,101548.50
2022-10-04T18:32:32.298Z,101560.13
2022-10-04T18:35:03.479Z,101556.47
2022-10-04T18:37:39.270Z,101557.91
2022-10-04T18:40:19.237Z,101560.47
2022-10-04T18:42:53.552Z,101567.66
2022-10-04T18:45:26.385Z,101568.34
2022-10-04T18:47:56.868Z,101562.19
2022-10-04T18:50:37.997Z,101564.75
2022-10-04T18:53:43.685Z,101571.88
2022-10-04T18:56:14.007Z,101578.34
2022-10-04T18:59:14.951Z,101580.59
2022-10-04T19:02:01.269Z,101570.00
2022-10-04T19:04:46.621Z,101567.69
2022-10-04T19:07:18.042Z,101571.25
2022-10-04T19:10:17.594Z,101568.59
2022-10-04T19:13:20.067Z,101566.44
2022-10-04T19:16:17.080Z,101541.88
2022-10-04T19:18:57.992Z,101539.09
2022-10-04T19:21:34.062Z,101539.03
2022-10-04T19:24:35.369Z,101548.84
2022-10-04T19:27:08.412Z,101545.03
2022-10-04T19:30:02.256Z,101547.78
2022-10-04T19:32:44.165Z,101530.13
2022-10-04T19:35:30.244Z,101539.31
2022-10-04T19:38:07.225Z,101544.31
2022-10-04T19:40:48.499Z,101552.63
2022-10-04T19:43:24.847Z,101557.91
2022-10-04T19:46:11.341Z,101566.59
2022-10-04T19:48:49.670Z,101561.69
2022-10-04T19:51:27.751Z,101569.84
2022-10-04T19:54:04.417Z,101580.19
2022-10-04T19:56:37.007Z,101564.47
2022-10-04T19:59:10.318Z,101568.00
2022-10-04T20:01:40.067Z,101564.16
2022-10-04T20:04:32.029Z,101564.75
2022-10-04T20:07:02.831Z,101552.78
2022-10-04T20:09:52.071Z,101561.16
2022-10-04T20:12:36.952Z,101555.47
2022-10-04T20:15:43.906Z,101553.94
2022-10-04T20:19:15.591Z,101559.00
2022-10-04T20:21:43.949Z,101550.72
2022-10-04T20:24:18.604Z,101554.88
2022-10-04T20:30:56.491Z,101557.66
2022-10-04T20:33:49.724Z,101552.81
2022-10-04T20:37:29.276Z,101541.63
2022-10-04T20:39:59.283Z,101535.06
2022-10-04T20:42:38.830Z,101535.13
2022-10-04T20:45:27.814Z,101535.72
2022-10-04T20:47:58.359Z,101538.50
2022-10-04T20:50:38.162Z,101530.38
2022-10-04T20:53:16.099Z,101529.81
2022-10-04T20:55:46.854Z,101516.44
2022-10-04T20:58:35.444Z,101527.03
2022-10-04T21:01:16.971Z,101527.03
2022-10-04T21:03:45.685Z,101533.16
2022-10-04T21:06:16.815Z,101527.25
2022-10-04T21:08:45.036Z,101533.91
2022-10-04T21:11:21.673Z,101526.03
2022-10-04T21:13:56.473Z,101522.66
2022-10-04T21:16:47.605Z,101533.28
2022-10-04T21:19:50.332Z,101543.00
2022-10-04T21:22:39.610Z,101550.81
2022-10-04T21:25:32.167Z,101547.09
2022-10-04T21:28:35.006Z,101545.13
2022-10-04T21:31:04.804Z,101545.06
2022-10-04T21:33:34.345Z,101544.47
2022-10-04T21:36:03.103Z,101550.38
2022-10-04T21:38:31.674Z,101540.56
2022-10-04T21:40:59.854Z,101540.34
2022-10-04T21:43:28.295Z,101536.38
2022-10-04T21:45:58.116Z,101534.47
2022-10-04T21:48:27.497Z,101527.41
2022-10-04T21:50:56.376Z,101531.47
2022-10-04T21:53:24.939Z,101539.22
2022-10-04T21:55:53.432Z,101539.06
2022-10-04T21:58:21.606Z,101539.09
2022-10-04T22:00:50.351Z,101549.47
2022-10-04T22:03:20.291Z,101548.91
2022-10-04T22:05:48.441Z,101555.34
2022-10-04T22:08:16.663Z,101549.75
2022-10-04T22:10:45.650Z,101545.47
2022-10-04T22:13:14.044Z,101545.22
2022-10-04T22:15:42.361Z,101542.09
2022-10-04T22:18:10.720Z,101532.31
2022-10-04T22:20:40.381Z,101533.50
2022-10-04T22:23:16.381Z,101529.34
2022-10-04T22:25:44.631Z,101525.91
2022-10-04T22:28:22.927Z,101525.63
2022-10-04T22:30:52.428Z,101526.13
2022-10-04T22:33:34.853Z,101524.53
2022-10-04T22:36:15.555Z,101534.94
2022-10-04T22:38:49.300Z,101538.13
2022-10-04T22:41:19.702Z,101534.75
2022-10-04T22:43:48.358Z,101540.91
2022-10-04T22:46:19.989Z,101544.53
2022-10-04T22:48:50.514Z,101538.72
2022-10-04T22:51:21.390Z,101539.16
2022-10-04T22:53:49.630Z,101538.59
2022-10-04T22:56:18.271Z,101532.47
2022-10-04T22:58:46.513Z,101530.09
2022-10-04T23:01:17.099Z,101532.47
2022-10-04T23:03:48.137Z,101527.31
2022-10-04T23:06:16.871Z,101522.34
2022-10-04T23:08:46.604Z,101526.13
2022-10-04T23:11:14.823Z,101521.06
2022-10-04T23:13:43.091Z,101516.44
2022-10-04T23:16:15.460Z,101527.31
2022-10-04T23:18:43.857Z,101525.03
2022-10-04T23:21:24.199Z,101513.66
2022-10-04T23:23:54.630Z,101527.91
2022-10-04T23:26:25.828Z,101523.13
2022-10-04T23:28:54.078Z,101527.81
2022-10-04T23:31:25.681Z,101521.69
2022-10-04T23:33:57.908Z,101516.94
2022-10-04T23:36:26.393Z,101519.91
2022-10-04T23:39:00.768Z,101521.84
2022-10-04T23:41:29.401Z,101522.00
2022-10-04T23:43:57.627Z,101511.38
2022-10-04T23:46:26.010Z,101515.66
2022-10-04T23:48:54.197Z,101498.78
2022-10-04T23:51:22.849Z,101509.31
2022-10-04T23:53:51.636Z,101504.94
2022-10-04T23:56:25.022Z,101506.25
2022-10-04T23:58:57.931Z,101493.44
